Time;durP1;ratioP1;P1;durP2;ratioP2;P2;SDS_P1;SDS_P2;PMS_P1;PMS_P2;Temp;Humidity;BMP_temperature;BMP_pressure;BME280_temperature;BME280_humidity;BME280_pressure;Samples;Min_cycle;Max_cycle;Signal;HPM_P1;HPM_P2
2022/01/05 05:00:44;;;;;;;2.00;1.60;;;5.00;99.90;;;;;;5920621;22;91935;-74
2022/01/05 05:03:10;;;;;;;3.85;1.60;;;4.80;99.90;;;;;;4995559;28;91230;-73
2022/01/05 05:05:35;;;;;;;2.88;1.70;;;4.60;99.90;;;;;;4997742;28;89231;-74
2022/01/05 05:08:02;;;;;;;2.25;1.92;;;4.40;99.90;;;;;;4996125;28;92684;-73
2022/01/05 05:10:27;;;;;;;2.58;1.83;;;4.30;99.90;;;;;;4997214;28;89978;-73
2022/01/05 05:12:53;;;;;;;2.58;2.05;;;4.10;99.90;;;;;;4997880;28;89667;-75
2022/01/05 05:15:18;;;;;;;3.47;2.88;;;4.00;99.90;;;;;;4997372;28;90285;-76
2022/01/05 05:17:44;;;;;;;2.90;2.60;;;3.90;99.90;;;;;;4995901;28;92641;-76
2022/01/05 05:20:10;;;;;;;3.25;2.80;;;3.80;99.90;;;;;;4997411;28;89290;-75
2022/01/05 05:22:37;;;;;;;3.47;3.13;;;3.70;99.90;;;;;;4995378;28;91969;-76
2022/01/05 05:25:03;;;;;;;4.63;3.53;;;3.60;99.90;;;;;;4997373;28;89308;-76
2022/01/05 05:27:29;;;;;;;4.57;3.80;;;3.60;99.90;;;;;;4996763;28;89980;-75
2022/01/05 05:29:55;;;;;;;5.30;4.00;;;3.60;99.90;;;;;;4995739;28;92220;-76
2022/01/05 05:32:20;;;;;;;5.82;4.65;;;3.60;99.90;;;;;;4996802;28;90150;-76
2022/01/05 05:34:46;;;;;;;6.50;4.47;;;3.60;99.90;;;;;;4997072;28;89218;-76
2022/01/05 05:37:12;;;;;;;7.85;5.10;;;3.50;99.90;;;;;;4996717;28;90147;-75
2022/01/05 05:39:37;;;;;;;7.43;5.40;;;3.50;99.90;;;;;;4996567;28;90390;-76
2022/01/05 05:42:03;;;;;;;8.02;5.57;;;3.50;99.90;;;;;;4996272;28;90848;-76
2022/01/05 05:44:29;;;;;;;7.60;4.43;;;3.50;99.90;;;;;;4996577;28;89254;-76
2022/01/05 05:46:55;;;;;;;6.05;4.80;;;3.50;99.90;;;;;;4995227;28;91525;-75
2022/01/05 05:49:20;;;;;;;8.43;4.43;;;3.50;99.90;;;;;;4997369;28;90494;-78
2022/01/05 05:51:46;;;;;;;6.35;5.53;;;3.40;99.90;;;;;;4999780;28;89768;-78
2022/01/05 05:54:11;;;;;;;7.13;5.30;;;3.40;99.90;;;;;;4999318;28;89422;-78
2022/01/05 05:56:37;;;;;;;9.20;4.78;;;3.40;99.90;;;;;;4996251;28;92492;-75
2022/01/05 05:59:02;;;;;;;6.78;5.22;;;3.40;99.90;;;;;;4996894;28;89332;-76
2022/01/05 06:01:29;;;;;;;6.97;5.05;;;3.30;99.90;;;;;;4994758;28;91932;-76
2022/01/05 06:03:54;;;;;;;8.00;5.80;;;3.30;99.90;;;;;;4995322;28;90266;-76
2022/01/05 06:06:20;;;;;;;9.20;5.70;;;3.30;99.90;;;;;;4998914;28;91841;-77
2022/01/05 06:08:46;;;;;;;10.52;6.70;;;3.30;99.90;;;;;;5001618;28;89407;-75
2022/01/05 06:11:11;;;;;;;11.82;7.15;;;3.20;99.90;;;;;;5003179;28;89677;-77
2022/01/05 06:13:37;;;;;;;8.68;6.88;;;3.30;99.90;;;;;;5000771;28;89461;-76
2022/01/05 06:16:02;;;;;;;7.65;5.85;;;3.20;99.90;;;;;;4999986;28;89351;-76
2022/01/05 06:18:28;;;;;;;9.18;6.80;;;3.20;99.90;;;;;;4999798;28;89361;-76
2022/01/05 06:20:54;;;;;;;10.52;5.88;;;3.10;99.90;;;;;;4998363;28;92757;-76
2022/01/05 06:23:19;;;;;;;7.95;5.72;;;3.10;99.90;;;;;;5001916;28;89266;-76
2022/01/05 06:25:45;;;;;;;10.55;6.43;;;3.10;99.90;;;;;;5000345;28;89469;-76
2022/01/05 06:28:11;;;;;;;9.95;6.25;;;3.10;99.90;;;;;;4999826;28;91415;-76
2022/01/05 06:30:40;;;;;;;9.75;6.03;;;3.10;99.90;;;;;;5000034;28;90440;-77
2022/01/05 06:33:06;;;;;;;11.45;6.50;;;3.10;99.90;;;;;;4999699;28;89217;-76
2022/01/05 06:35:32;;;;;;;11.80;6.65;;;3.10;99.90;;;;;;4999738;28;89163;-76
2022/01/05 06:37:57;;;;;;;11.32;6.05;;;3.10;99.90;;;;;;5000081;28;89927;-76
2022/01/05 06:40:23;;;;;;;12.38;6.72;;;3.10;99.90;;;;;;4999341;28;89840;-76
2022/01/05 06:42:49;;;;;;;11.02;6.32;;;3.00;99.90;;;;;;4999699;28;89230;-76
2022/01/05 06:45:16;;;;;;;10.20;5.75;;;3.00;99.90;;;;;;5000305;28;88977;-76
2022/01/05 06:47:41;;;;;;;16.52;6.03;;;3.00;99.90;;;;;;4999738;28;89398;-77
2022/01/05 06:50:09;;;;;;;9.60;5.65;;;3.00;99.90;;;;;;5000090;28;89504;-76
2022/01/05 06:52:35;;;;;;;14.38;6.15;;;3.10;99.90;;;;;;4999226;28;90260;-76
2022/01/05 06:55:00;;;;;;;11.38;5.90;;;3.00;99.90;;;;;;4999071;28;89959;-76
2022/01/05 06:57:26;;;;;;;11.82;6.47;;;3.00;99.90;;;;;;4999492;28;90219;-76
2022/01/05 06:59:51;;;;;;;12.73;5.88;;;3.00;99.90;;;;;;4997837;28;91795;-76
2022/01/05 07:02:17;;;;;;;13.18;6.80;;;3.00;99.90;;;;;;4999436;28;89533;-76
2022/01/05 07:04:43;;;;;;;18.40;6.75;;;3.00;99.90;;;;;;4998141;28;91809;-77
2022/01/05 07:07:08;;;;;;;14.57;6.47;;;3.00;99.90;;;;;;4999300;28;89715;-76
2022/01/05 07:09:34;;;;;;;12.13;6.43;;;3.00;99.90;;;;;;4999418;28;89723;-76
2022/01/05 07:11:59;;;;;;;15.30;6.30;;;3.00;99.90;;;;;;4999323;28;89261;-77
2022/01/05 07:14:25;;;;;;;12.35;6.72;;;3.00;99.90;;;;;;4997086;28;92859;-76
2022/01/05 07:16:51;;;;;;;14.57;6.82;;;3.00;99.90;;;;;;4997943;28;91822;-76
2022/01/05 07:19:17;;;;;;;11.50;5.85;;;3.10;99.90;;;;;;4998760;28;90584;-76
2022/01/05 07:21:44;;;;;;;12.70;5.07;;;3.10;99.90;;;;;;4999011;28;89287;-76
2022/01/05 07:24:12;;;;;;;10.00;4.68;;;3.10;99.90;;;;;;5000090;28;89352;-77
2022/01/05 07:26:39;;;;;;;7.57;3.85;;;3.10;99.90;;;;;;4998004;28;90573;-76
2022/01/05 07:29:05;;;;;;;9.57;4.00;;;3.10;99.90;;;;;;4999079;28;89666;-77
2022/01/05 07:31:30;;;;;;;8.98;3.10;;;3.00;99.90;;;;;;4998918;28;89315;-76
2022/01/05 07:33:56;;;;;;;5.22;2.65;;;3.00;99.90;;;;;;4998705;28;89760;-76
2022/01/05 07:36:21;;;;;;;6.40;3.22;;;2.90;99.90;;;;;;4998493;28;90289;-76
2022/01/05 07:38:47;;;;;;;4.60;2.90;;;2.90;99.90;;;;;;4997871;28;90692;-76
2022/01/05 07:41:12;;;;;;;12.77;3.50;;;2.90;99.90;;;;;;4998050;28;90166;-76
2022/01/05 07:43:38;;;;;;;6.30;2.88;;;2.80;99.90;;;;;;4998208;28;90675;-75
2022/01/05 07:46:03;;;;;;;6.90;2.90;;;2.80;99.90;;;;;;4998481;28;89827;-76
2022/01/05 07:48:29;;;;;;;5.82;3.05;;;2.80;99.90;;;;;;4998684;28;89675;-76
2022/01/05 07:50:55;;;;;;;5.72;3.00;;;2.80;99.90;;;;;;4998398;28;89162;-75
2022/01/05 07:53:21;;;;;;;6.20;3.00;;;2.80;99.90;;;;;;4996390;28;92635;-77
2022/01/05 07:55:47;;;;;;;6.97;3.30;;;2.80;99.90;;;;;;4998314;28;90367;-76
2022/01/05 07:58:13;;;;;;;6.95;3.10;;;2.80;99.90;;;;;;4998840;28;90028;-75
2022/01/05 08:00:39;;;;;;;7.68;3.45;;;2.80;99.90;;;;;;4996301;28;89442;-77
2022/01/05 08:03:04;;;;;;;6.20;3.60;;;2.90;99.90;;;;;;4997993;28;89346;-76
2022/01/05 08:05:30;;;;;;;8.77;3.25;;;2.90;99.90;;;;;;4997709;28;90876;-76
2022/01/05 08:07:55;;;;;;;9.55;3.42;;;2.80;99.90;;;;;;4996704;28;93229;-77
2022/01/05 08:10:21;;;;;;;8.00;3.50;;;2.70;99.90;;;;;;4998778;28;89229;-77
2022/01/05 08:12:47;;;;;;;10.38;3.60;;;2.70;99.90;;;;;;4997944;28;89792;-77
2022/01/05 08:15:14;;;;;;;8.50;3.85;;;2.70;99.90;;;;;;4998560;28;90344;-77
2022/01/05 08:17:40;;;;;;;9.60;3.78;;;2.70;99.90;;;;;;4997144;28;91644;-77
2022/01/05 08:20:10;;;;;;;9.15;3.53;;;2.70;99.90;;;;;;4999125;28;89243;-77
2022/01/05 08:22:44;;;;;;;8.82;3.55;;;2.80;99.90;;;;;;4998236;28;89787;-77
2022/01/05 08:25:13;;;;;;;8.57;3.85;;;2.80;99.90;;;;;;4999330;28;89858;-77
2022/01/05 08:27:46;;;;;;;6.60;3.47;;;2.80;99.90;;;;;;4998106;28;91077;-77
2022/01/05 08:30:20;;;;;;;4.78;2.25;;;2.80;99.90;;;;;;4999578;28;90245;-78
2022/01/05 08:32:47;;;;;;;7.30;3.00;;;2.90;99.90;;;;;;4996761;28;92889;-76
2022/01/05 08:35:13;;;;;;;5.05;3.00;;;2.80;99.90;;;;;;4996837;28;92541;-77
2022/01/05 08:37:44;;;;;;;5.63;2.65;;;2.70;99.90;;;;;;4999769;28;89076;-77
2022/01/05 08:40:11;;;;;;;6.70;2.60;;;2.60;99.90;;;;;;4997248;28;89841;-77
2022/01/05 08:42:37;;;;;;;3.95;2.05;;;2.40;99.90;;;;;;4997905;28;89200;-77
2022/01/05 08:45:03;;;;;;;6.40;2.35;;;2.40;99.90;;;;;;4997982;28;89394;-77
2022/01/05 08:47:30;;;;;;;6.85;2.50;;;2.30;99.90;;;;;;4998017;28;89676;-77
2022/01/05 08:49:55;;;;;;;4.57;2.47;;;2.40;99.90;;;;;;4997858;28;89253;-77
2022/01/05 08:52:21;;;;;;;6.53;2.60;;;2.40;99.90;;;;;;4997284;28;89639;-77
2022/01/05 08:54:47;;;;;;;7.28;2.40;;;2.50;99.90;;;;;;5000109;28;91524;-78
2022/01/05 08:57:13;;;;;;;6.63;2.60;;;2.50;99.90;;;;;;5000409;28;90525;-78
2022/01/05 08:59:40;;;;;;;12.38;3.95;;;2.50;99.90;;;;;;4998803;28;89305;-75
2022/01/05 09:02:06;;;;;;;5.70;3.03;;;2.60;99.90;;;;;;4997332;28;89704;-77
2022/01/05 09:04:31;;;;;;;10.55;4.85;;;2.90;99.90;;;;;;4997607;28;90448;-77
2022/01/05 09:06:57;;;;;;;7.82;4.60;;;3.00;99.90;;;;;;4999396;28;89616;-77
2022/01/05 09:09:24;;;;;;;5.78;3.50;;;3.10;99.90;;;;;;5002657;28;89244;-77
2022/01/05 09:11:50;;;;;;;7.05;2.47;;;3.20;99.90;;;;;;5007133;28;88932;-77
2022/01/05 09:14:15;;;;;;;8.88;2.50;;;3.10;99.90;;;;;;5021453;28;88799;-77
2022/01/05 09:16:42;;;;;;;7.47;2.20;;;2.90;99.90;;;;;;5009172;28;89444;-77
2022/01/05 09:19:08;;;;;;;7.40;2.17;;;2.90;99.90;;;;;;4999134;28;90284;-77
2022/01/05 09:21:33;;;;;;;8.20;1.85;;;2.90;99.90;;;;;;4999495;28;89373;-77
2022/01/05 09:23:59;;;;;;;9.13;2.10;;;3.00;99.90;;;;;;4997016;28;91909;-77
2022/01/05 09:26:24;;;;;;;8.40;2.10;;;3.10;99.90;;;;;;4996039;28;92044;-76
2022/01/05 09:28:50;;;;;;;5.75;1.83;;;3.20;99.90;;;;;;4997179;28;89309;-76
2022/01/05 09:31:15;;;;;;;6.22;2.20;;;3.20;99.90;;;;;;4995207;28;91516;-76
2022/01/05 09:33:41;;;;;;;6.43;1.90;;;3.20;99.90;;;;;;4996927;28;89795;-77
2022/01/05 09:36:57;;;;;;;6.82;2.53;;;3.00;99.90;;;;;;4997681;28;88877;-77
2022/01/05 09:41:58;;;;;;;8.35;2.45;;;2.90;99.90;;;;;;5000394;28;89466;-76
2022/01/05 09:44:33;;;;;;;6.20;1.55;;;2.90;99.90;;;;;;4999864;28;90149;-76
2022/01/05 09:47:08;;;;;;;9.50;2.10;;;2.70;99.90;;;;;;5000080;28;89751;-76
2022/01/05 09:49:36;;;;;;;9.43;2.33;;;2.60;99.90;;;;;;4999196;28;89273;-76
2022/01/05 09:52:09;;;;;;;6.95;2.45;;;2.50;99.90;;;;;;4999722;28;89766;-75
2022/01/05 09:54:37;;;;;;;5.95;2.05;;;2.50;99.90;;;;;;5000092;28;90049;-76
2022/01/05 09:57:04;;;;;;;7.55;2.17;;;2.40;99.90;;;;;;5000567;28;89590;-77
2022/01/05 09:59:33;;;;;;;5.72;2.13;;;2.40;99.90;;;;;;5000676;28;89696;-77
2022/01/05 10:01:59;;;;;;;5.57;1.90;;;2.40;99.90;;;;;;4999779;28;88980;-77
2022/01/05 10:04:25;;;;;;;7.43;2.10;;;2.60;99.90;;;;;;5000161;28;90469;-77
2022/01/05 10:06:51;;;;;;;5.90;2.05;;;2.60;99.90;;;;;;5001085;28;89509;-77
2022/01/05 10:09:16;;;;;;;3.85;2.10;;;2.70;99.90;;;;;;5001369;28;90243;-76
2022/01/05 10:11:42;;;;;;;7.72;1.95;;;2.70;99.90;;;;;;5002251;28;90212;-76
2022/01/05 10:14:11;;;;;;;6.32;2.13;;;2.60;99.90;;;;;;5005186;28;90231;-77
2022/01/05 10:16:37;;;;;;;5.25;2.47;;;2.50;99.90;;;;;;5004916;28;89293;-77
2022/01/05 10:19:05;;;;;;;10.82;2.47;;;2.60;99.90;;;;;;5004833;28;89127;-76
2022/01/05 10:21:36;;;;;;;9.52;2.17;;;2.60;99.90;;;;;;5003306;28;89173;-76
2022/01/05 10:24:03;;;;;;;8.95;2.38;;;2.60;99.90;;;;;;5003681;28;90192;-76
2022/01/05 10:26:40;;;;;;;6.03;2.00;;;2.60;99.90;;;;;;5004397;28;89007;-77
2022/01/05 10:29:21;;;;;;;5.28;2.30;;;2.70;99.90;;;;;;5004969;28;89183;-76
2022/01/05 10:31:55;;;;;;;8.10;2.40;;;2.60;99.90;;;;;;5002832;28;89659;-75
2022/01/05 10:34:26;;;;;;;8.82;2.30;;;2.60;99.90;;;;;;5000352;28;93311;-75
2022/01/05 10:36:53;;;;;;;9.52;2.25;;;2.70;99.90;;;;;;5002574;28;91078;-77
2022/01/05 10:39:26;;;;;;;9.43;2.22;;;2.80;99.90;;;;;;5001871;28;89673;-76
2022/01/05 10:41:52;;;;;;;8.40;2.45;;;2.80;99.90;;;;;;5001221;28;89881;-76
2022/01/05 10:44:22;;;;;;;6.95;2.25;;;2.90;99.90;;;;;;4999888;28;92987;-75
2022/01/05 10:46:55;;;;;;;6.78;2.10;;;3.10;99.90;;;;;;5002901;28;89551;-76
2022/01/05 10:49:31;;;;;;;5.57;2.00;;;3.30;99.90;;;;;;5001108;28;89193;-77
2022/01/05 10:52:21;;;;;;;8.07;2.50;;;3.50;99.90;;;;;;4999402;28;92608;-76
2022/01/05 10:54:48;;;;;;;10.35;2.13;;;3.60;99.90;;;;;;5002277;28;89259;-77
2022/01/05 10:57:14;;;;;;;8.57;2.05;;;3.70;99.90;;;;;;5000704;28;91919;-76
2022/01/05 10:59:42;;;;;;;8.90;2.03;;;3.70;99.90;;;;;;5001449;28;90268;-76
2022/01/05 11:02:26;;;;;;;4.50;1.67;;;3.80;99.90;;;;;;5000849;28;89671;-78
2022/01/05 11:04:55;;;;;;;11.02;2.33;;;3.80;99.90;;;;;;5002278;28;89357;-77
2022/01/05 11:07:23;;;;;;;6.53;1.98;;;3.90;99.90;;;;;;5002025;28;89613;-75
2022/01/05 11:10:01;;;;;;;9.38;1.92;;;3.90;99.90;;;;;;5002581;28;89237;-76
2022/01/05 11:12:50;;;;;;;5.60;2.13;;;3.90;99.90;;;;;;5003499;28;89399;-74
2022/01/05 11:15:24;;;;;;;10.77;2.10;;;3.80;99.90;;;;;;4999511;28;90235;-74
2022/01/05 11:18:11;;;;;;;7.55;2.70;;;3.70;99.90;;;;;;4998796;28;91631;-75
2022/01/05 11:20:52;;;;;;;10.13;2.42;;;3.60;99.90;;;;;;4999798;28;89325;-75
2022/01/05 11:23:26;;;;;;;8.18;1.90;;;3.60;99.90;;;;;;4999445;28;89273;-76
2022/01/05 11:25:54;;;;;;;11.52;2.30;;;3.50;99.90;;;;;;4998731;28;90227;-76
2022/01/05 11:28:21;;;;;;;7.60;2.05;;;3.50;99.90;;;;;;4998924;28;90017;-76
2022/01/05 11:30:49;;;;;;;8.55;2.15;;;3.50;99.90;;;;;;4998881;28;89402;-76
2022/01/05 11:33:16;;;;;;;7.70;2.00;;;3.40;99.90;;;;;;4998643;28;89758;-75
2022/01/05 11:35:42;;;;;;;8.23;2.08;;;3.40;99.90;;;;;;4998687;28;89411;-75
2022/01/05 11:38:09;;;;;;;9.02;2.28;;;3.30;99.90;;;;;;4998757;28;89204;-76
2022/01/05 11:40:38;;;;;;;9.30;2.10;;;3.30;99.90;;;;;;4998864;28;89263;-75
2022/01/05 11:43:11;;;;;;;11.00;2.60;;;3.30;99.90;;;;;;4998894;28;89000;-77
2022/01/05 11:45:47;;;;;;;8.45;2.15;;;3.40;99.90;;;;;;4998750;28;89450;-77
2022/01/05 11:48:26;;;;;;;5.47;2.00;;;3.40;99.90;;;;;;4998933;28;89182;-76
2022/01/05 11:51:01;;;;;;;7.05;2.58;;;3.40;99.90;;;;;;4996462;28;90278;-77
2022/01/05 11:53:36;;;;;;;5.65;1.98;;;3.40;99.90;;;;;;4999364;28;89086;-76
2022/01/05 11:56:09;;;;;;;6.53;2.00;;;3.40;99.90;;;;;;4999277;28;90739;-77
2022/01/05 11:58:47;;;;;;;11.73;2.42;;;3.50;99.90;;;;;;5002227;28;89431;-76
2022/01/05 12:01:13;;;;;;;10.70;2.83;;;3.50;99.90;;;;;;5002096;28;89269;-77
2022/01/05 12:03:56;;;;;;;10.38;2.97;;;3.60;99.90;;;;;;5001372;28;89320;-77
2022/01/05 12:06:24;;;;;;;8.85;2.40;;;3.60;99.90;;;;;;5012596;28;90110;-76
2022/01/05 12:08:54;;;;;;;8.85;2.40;;;3.60;99.90;;;;;;5022203;28;88378;-77
2022/01/05 12:11:44;;;;;;;10.07;2.92;;;3.70;99.90;;;;;;5003221;28;89282;-77
2022/01/05 12:14:22;;;;;;;10.13;2.53;;;3.60;99.90;;;;;;4998388;28;89252;-76
2022/01/05 12:17:00;;;;;;;6.93;2.08;;;3.50;99.90;;;;;;4997162;28;93074;-76
2022/01/05 12:19:34;;;;;;;9.20;2.60;;;3.50;99.90;;;;;;5000565;28;90031;-78
2022/01/05 12:22:21;;;;;;;8.25;2.70;;;3.40;99.90;;;;;;4997668;28;89340;-77
2022/01/05 12:24:53;;;;;;;8.70;2.83;;;3.40;99.90;;;;;;4998253;28;90818;-76
2022/01/05 12:27:19;;;;;;;10.48;3.90;;;3.30;99.90;;;;;;4997581;28;92202;-77
2022/01/05 12:29:46;;;;;;;10.90;2.90;;;3.30;99.90;;;;;;4997105;28;91282;-77
2022/01/05 12:32:40;;;;;;;8.75;2.17;;;3.40;99.90;;;;;;4998431;28;89270;-74
2022/01/05 12:35:07;;;;;;;10.55;2.40;;;3.50;99.90;;;;;;4998484;28;89585;-74
2022/01/05 12:37:49;;;;;;;10.20;2.75;;;3.50;99.90;;;;;;4996203;28;92873;-74
2022/01/05 12:40:21;;;;;;;11.10;2.42;;;3.50;99.90;;;;;;4997732;28;89633;-74
2022/01/05 12:42:46;;;;;;;5.55;2.45;;;3.40;99.90;;;;;;4997460;28;90183;-76
2022/01/05 12:45:47;;;;;;;9.85;2.80;;;3.50;99.90;;;;;;4996503;28;92770;-76
2022/01/05 12:48:33;;;;;;;10.77;2.05;;;3.50;99.90;;;;;;4998352;28;90507;-76
2022/01/05 12:51:17;;;;;;;5.13;2.20;;;3.50;99.90;;;;;;4997778;28;89317;-76
2022/01/05 12:54:03;;;;;;;11.38;2.20;;;3.60;99.90;;;;;;4997423;28;89431;-77
2022/01/05 12:56:36;;;;;;;12.18;2.30;;;3.70;99.90;;;;;;4999701;28;89190;-77
2022/01/05 12:59:13;;;;;;;11.40;2.60;;;3.80;99.90;;;;;;4999020;28;90043;-77
2022/01/05 13:01:41;;;;;;;9.10;2.45;;;3.70;99.90;;;;;;4996305;28;90718;-77
2022/01/05 13:04:09;;;;;;;7.90;2.08;;;3.70;99.90;;;;;;4997498;28;89318;-76
2022/01/05 13:06:35;;;;;;;6.50;2.00;;;3.80;99.90;;;;;;4998345;28;89365;-75
2022/01/05 13:09:07;;;;;;;8.63;2.22;;;3.80;99.90;;;;;;4998073;28;90310;-77
2022/01/05 13:11:50;;;;;;;8.48;2.30;;;4.00;99.90;;;;;;4997766;28;93491;-77
2022/01/05 13:14:35;;;;;;;8.98;2.10;;;4.00;99.90;;;;;;5001370;28;89033;-76
2022/01/05 13:17:09;;;;;;;11.05;1.88;;;4.20;99.90;;;;;;5002112;28;89237;-75
2022/01/05 13:19:47;;;;;;;8.68;1.95;;;4.20;99.90;;;;;;5002130;28;90172;-75
2022/01/05 13:22:30;;;;;;;7.38;2.13;;;4.10;99.90;;;;;;5000931;28;89466;-76
2022/01/05 13:25:22;;;;;;;9.38;2.10;;;4.20;99.90;;;;;;5002609;28;89191;-76
2022/01/05 13:27:50;;;;;;;6.65;1.80;;;4.20;99.90;;;;;;5001890;28;89039;-76
2022/01/05 13:30:19;;;;;;;6.97;1.95;;;4.20;99.90;;;;;;4999179;28;93007;-75
2022/01/05 13:32:49;;;;;;;7.47;2.40;;;4.20;99.90;;;;;;5000523;28;90116;-76
2022/01/05 13:35:23;;;;;;;8.02;2.28;;;4.20;99.90;;;;;;5002367;28;90128;-78
2022/01/05 13:37:57;;;;;;;9.38;2.30;;;4.20;99.90;;;;;;5000158;28;91210;-77
2022/01/05 13:40:27;;;;;;;8.48;2.10;;;4.20;99.90;;;;;;5001226;28;89251;-76
2022/01/05 13:43:01;;;;;;;7.82;2.35;;;4.10;99.90;;;;;;5000731;28;89212;-76
2022/01/05 13:45:29;;;;;;;9.65;2.20;;;4.10;99.90;;;;;;5001337;28;89261;-76
2022/01/05 13:48:05;;;;;;;8.38;2.80;;;4.10;99.90;;;;;;5000544;28;89876;-76
2022/01/05 13:50:44;;;;;;;6.88;2.20;;;3.90;99.90;;;;;;5001017;28;90490;-75
2022/01/05 13:53:24;;;;;;;6.15;2.00;;;4.00;99.90;;;;;;4999148;28;92513;-76
2022/01/05 13:55:55;;;;;;;8.25;2.33;;;4.00;99.90;;;;;;5001724;28;89293;-78
2022/01/05 13:58:23;;;;;;;10.32;2.55;;;4.00;99.90;;;;;;5001311;28;89253;-76
2022/01/05 14:00:52;;;;;;;8.02;2.50;;;4.00;99.90;;;;;;4999452;28;90699;-76
2022/01/05 14:03:36;;;;;;;7.70;2.10;;;3.90;99.90;;;;;;5000545;28;91149;-76
2022/01/05 14:06:04;;;;;;;5.13;1.75;;;3.80;99.90;;;;;;5001085;28;89369;-76
2022/01/05 14:08:37;;;;;;;5.18;2.08;;;3.80;99.90;;;;;;5001337;28;92740;-76
2022/01/05 14:11:17;;;;;;;6.43;1.73;;;3.80;99.90;;;;;;5004241;28;89597;-78
2022/01/05 14:14:05;;;;;;;6.85;1.70;;;3.70;99.90;;;;;;5001733;28;92114;-77
2022/01/05 14:16:39;;;;;;;9.57;2.33;;;3.70;99.90;;;;;;4999779;28;89340;-77
2022/01/05 14:19:05;;;;;;;9.32;1.95;;;3.70;99.90;;;;;;5000872;28;88872;-77
2022/01/05 14:21:32;;;;;;;6.53;1.70;;;3.70;99.90;;;;;;5000200;28;89350;-76
2022/01/05 14:23:59;;;;;;;5.95;1.65;;;3.60;99.90;;;;;;5000096;28;90038;-77
2022/01/05 14:26:28;;;;;;;7.45;1.65;;;3.60;99.90;;;;;;5000066;28;90392;-76
2022/01/05 14:28:55;;;;;;;6.38;1.88;;;3.60;99.90;;;;;;5000288;28;89350;-77
2022/01/05 14:31:21;;;;;;;5.28;1.67;;;3.60;99.90;;;;;;5000233;28;89329;-77
2022/01/05 14:33:53;;;;;;;4.72;1.88;;;3.70;99.90;;;;;;4999841;28;89794;-77
2022/01/05 14:36:23;;;;;;;9.27;2.00;;;3.70;99.90;;;;;;5000274;28;89329;-77
2022/01/05 14:38:54;;;;;;;9.45;1.77;;;3.60;99.90;;;;;;5000272;28;89210;-77
2022/01/05 14:41:20;;;;;;;4.93;1.50;;;3.70;99.90;;;;;;5000273;28;89285;-77
2022/01/05 14:44:05;;;;;;;8.52;3.00;;;3.60;99.90;;;;;;4998809;28;91614;-77
2022/01/05 14:46:31;;;;;;;8.05;1.75;;;3.60;99.90;;;;;;5000069;28;89339;-77
2022/01/05 14:48:57;;;;;;;6.82;2.05;;;3.60;99.90;;;;;;5000716;28;91684;-78
2022/01/05 14:51:23;;;;;;;9.32;2.20;;;3.60;99.90;;;;;;5001776;28;91428;-76
2022/01/05 14:53:49;;;;;;;5.82;2.05;;;3.60;99.90;;;;;;4999956;28;89462;-77
2022/01/05 14:56:15;;;;;;;7.50;1.70;;;3.60;99.90;;;;;;5000649;28;89551;-79
2022/01/05 14:58:40;;;;;;;8.32;2.10;;;3.60;99.90;;;;;;4998590;28;91852;-77
2022/01/05 15:01:06;;;;;;;5.85;1.83;;;3.50;99.90;;;;;;4999937;28;89528;-75
2022/01/05 15:03:32;;;;;;;4.97;1.77;;;3.50;99.90;;;;;;4999494;28;89602;-77
2022/01/05 15:05:58;;;;;;;12.05;2.65;;;3.50;99.90;;;;;;4998325;28;89703;-75
2022/01/05 15:08:24;;;;;;;11.73;3.35;;;3.50;99.90;;;;;;5008830;28;89560;-78
2022/01/05 15:10:49;;;;;;;10.38;2.40;;;3.50;99.90;;;;;;5024036;28;89683;-78
2022/01/05 15:13:15;;;;;;;9.15;2.83;;;3.50;99.90;;;;;;5009274;28;89732;-75
2022/01/05 15:15:40;;;;;;;9.45;2.33;;;3.50;99.90;;;;;;4999394;28;90303;-75
2022/01/05 15:18:07;;;;;;;8.73;2.53;;;3.50;99.90;;;;;;4997551;28;92187;-75
2022/01/05 15:20:33;;;;;;;11.85;2.50;;;3.50;99.90;;;;;;4999555;28;89867;-74
2022/01/05 15:22:59;;;;;;;6.85;2.30;;;3.50;99.90;;;;;;4998571;28;89667;-74
2022/01/05 15:25:25;;;;;;;5.97;2.45;;;3.50;99.90;;;;;;4999199;28;89251;-75
2022/01/05 15:27:51;;;;;;;8.00;1.75;;;3.50;99.90;;;;;;4999062;28;89721;-75
2022/01/05 15:30:17;;;;;;;5.97;2.10;;;3.50;99.90;;;;;;4998628;28;89853;-74
2022/01/05 15:32:43;;;;;;;5.13;1.63;;;3.50;99.90;;;;;;4999153;28;89464;-79
2022/01/05 15:35:09;;;;;;;5.80;1.95;;;3.40;99.90;;;;;;5002219;28;89678;-79
2022/01/05 15:37:34;;;;;;;8.13;1.83;;;3.40;99.90;;;;;;4999287;28;89290;-77
2022/01/05 15:40:00;;;;;;;7.35;1.55;;;3.40;99.90;;;;;;4998930;28;90931;-77
2022/01/05 15:42:26;;;;;;;7.43;1.73;;;3.40;99.90;;;;;;5002037;28;90684;-77
2022/01/05 15:44:51;;;;;;;6.65;1.88;;;3.40;99.90;;;;;;4999917;28;89266;-77
2022/01/05 15:47:17;;;;;;;6.85;2.10;;;3.40;99.90;;;;;;4999603;28;92404;-77
2022/01/05 15:49:43;;;;;;;6.07;2.53;;;3.40;99.90;;;;;;5001267;28;90066;-76
2022/01/05 15:52:09;;;;;;;6.60;2.20;;;3.40;99.90;;;;;;5001981;28;89992;-77
2022/01/05 15:54:39;;;;;;;5.32;2.03;;;3.40;99.90;;;;;;5002002;28;89320;-78
2022/01/05 15:57:11;;;;;;;7.15;1.80;;;3.40;99.90;;;;;;5000014;28;89143;-77
2022/01/05 16:02:21;;;;;;;6.00;1.77;;;3.40;99.90;;;;;;4998545;28;90359;-77
2022/01/05 16:04:46;;;;;;;6.30;1.70;;;3.40;99.90;;;;;;4998869;28;90565;-77
2022/01/05 16:07:13;;;;;;;6.50;1.92;;;3.40;99.90;;;;;;5000532;28;89677;-78
2022/01/05 16:09:39;;;;;;;8.07;2.05;;;3.30;99.90;;;;;;5001761;28;89289;-77
2022/01/05 16:12:06;;;;;;;7.47;1.60;;;3.30;99.90;;;;;;5000292;28;90119;-77
2022/01/05 16:14:32;;;;;;;9.45;1.83;;;3.40;99.90;;;;;;4999261;28;89272;-78
2022/01/05 16:16:57;;;;;;;5.35;1.80;;;3.40;99.90;;;;;;4999254;28;90826;-76
2022/01/05 16:19:23;;;;;;;4.80;1.83;;;3.40;99.90;;;;;;4998885;28;90122;-76
2022/01/05 16:21:48;;;;;;;10.25;1.95;;;3.40;99.90;;;;;;4999459;28;92180;-78
2022/01/05 16:24:16;;;;;;;6.72;1.80;;;3.50;99.90;;;;;;5000358;28;89291;-78
2022/01/05 16:26:42;;;;;;;6.80;1.58;;;3.40;99.90;;;;;;5001675;28;89529;-78
2022/01/05 16:29:07;;;;;;;7.28;1.60;;;3.40;99.90;;;;;;4999315;28;93907;-77
2022/01/05 16:31:33;;;;;;;6.00;1.90;;;3.40;99.90;;;;;;5000538;28;89959;-77
2022/01/05 16:33:59;;;;;;;7.97;1.83;;;3.40;99.90;;;;;;5000704;28;89199;-77
2022/01/05 16:36:25;;;;;;;5.75;2.10;;;3.40;99.90;;;;;;4997179;28;91341;-77
2022/01/05 16:38:50;;;;;;;9.07;1.90;;;3.40;99.90;;;;;;4997401;28;92048;-77
2022/01/05 16:41:16;;;;;;;8.50;1.98;;;3.40;99.90;;;;;;4999436;28;89691;-76
2022/01/05 16:43:43;;;;;;;5.88;2.80;;;3.50;99.90;;;;;;5000206;28;89220;-76
2022/01/05 16:46:11;;;;;;;7.07;2.20;;;3.40;99.90;;;;;;5001505;28;89440;-77
2022/01/05 16:48:37;;;;;;;8.10;2.60;;;3.40;99.90;;;;;;5000040;28;90326;-77
2022/01/05 16:51:04;;;;;;;9.05;2.22;;;3.40;99.90;;;;;;5000403;28;89226;-76
2022/01/05 16:53:29;;;;;;;5.78;1.92;;;3.40;99.90;;;;;;4999938;28;90288;-77
2022/01/05 16:55:55;;;;;;;6.38;1.92;;;3.50;99.90;;;;;;5001309;28;89203;-76
2022/01/05 17:01:06;;;;;;;4.97;1.40;;;3.50;99.90;;;;;;5004166;28;89233;-76
2022/01/05 17:03:32;;;;;;;6.93;1.90;;;3.50;99.90;;;;;;5001451;28;89345;-79
2022/01/05 17:05:58;;;;;;;6.80;1.55;;;3.50;99.90;;;;;;4999736;28;89408;-75
2022/01/05 17:08:24;;;;;;;5.70;1.63;;;3.50;99.90;;;;;;4999441;28;89237;-75
2022/01/05 17:10:51;;;;;;;11.27;1.80;;;3.50;99.90;;;;;;5000994;28;89043;-77
2022/01/05 17:13:17;;;;;;;6.03;1.80;;;3.50;99.90;;;;;;5011012;22;91011;-76
2022/01/05 17:15:48;;;;;;;6.82;1.70;;;3.50;99.90;;;;;;4977029;28;91609;-76
2022/01/05 17:18:14;;;;;;;4.70;1.65;;;3.50;99.90;;;;;;4982104;28;93670;-77
2022/01/05 17:20:41;;;;;;;7.85;1.63;;;3.50;99.90;;;;;;4977380;28;91080;-76
2022/01/05 17:23:07;;;;;;;7.50;1.83;;;3.50;99.90;;;;;;4975835;28;89241;-77
2022/01/05 17:25:32;;;;;;;7.93;2.28;;;3.40;99.90;;;;;;4976519;28;92691;-77
2022/01/05 17:27:58;;;;;;;7.68;1.75;;;3.40;99.90;;;;;;4977740;28;90388;-77
2022/01/05 17:30:24;;;;;;;6.78;1.92;;;3.50;99.90;;;;;;4977394;28;89229;-77
2022/01/05 17:32:50;;;;;;;8.98;2.85;;;3.50;99.90;;;;;;4975889;28;89987;-77
2022/01/05 17:35:16;;;;;;;9.73;2.60;;;3.50;99.90;;;;;;4977620;28;88842;-77
2022/01/05 17:37:43;;;;;;;7.93;2.00;;;3.50;99.90;;;;;;4977453;28;89940;-77
2022/01/05 17:40:10;;;;;;;6.80;2.30;;;3.50;99.90;;;;;;4977459;28;89200;-76
2022/01/05 17:42:36;;;;;;;7.35;1.90;;;3.50;99.90;;;;;;4975219;28;90179;-77
2022/01/05 17:45:02;;;;;;;5.30;1.77;;;3.50;99.90;;;;;;4977343;28;89232;-77
2022/01/05 17:47:28;;;;;;;7.55;2.38;;;3.50;99.90;;;;;;4977339;28;90604;-77
2022/01/05 17:49:53;;;;;;;4.57;1.80;;;3.50;99.90;;;;;;4976968;28;90184;-77
2022/01/05 17:52:19;;;;;;;5.97;1.80;;;3.50;99.90;;;;;;4976733;28;89250;-77
2022/01/05 17:54:45;;;;;;;8.30;2.10;;;3.50;99.90;;;;;;4976846;28;89749;-77
2022/01/05 17:57:11;;;;;;;6.35;1.85;;;3.50;99.90;;;;;;4977578;28;90423;-77
2022/01/05 17:59:37;;;;;;;9.25;2.10;;;3.50;99.90;;;;;;4977414;28;89901;-76
2022/01/05 18:02:03;;;;;;;4.53;1.70;;;3.50;99.90;;;;;;4979814;28;89253;-77
2022/01/05 18:04:29;;;;;;;6.70;2.20;;;3.50;99.90;;;;;;4979802;28;89607;-77
2022/01/05 18:06:55;;;;;;;10.02;2.00;;;3.50;99.90;;;;;;4978342;28;92779;-77
2022/01/05 18:09:21;;;;;;;8.82;2.33;;;3.60;99.90;;;;;;4980230;28;90975;-77
2022/01/05 18:11:46;;;;;;;8.93;2.90;;;3.50;99.90;;;;;;4980538;28;89253;-77